LFOK Airport Information

Runway Information
Runway 10 Length 12664 ft width 148 ft
Elevation 556 ft Threshold 361 ft Heading 102
Runway 28 Length 12664 ft Width 148 ft
Elevation 586 ft Threshold 361 ft Heading 282
Airport Frequencies
Type AFIS Name INFO Frequency 119.4 MHZ
Type TWR Name TWR Frequency 119.4 MHZ
Airport Navaids
Type VOR-DME Name Vatry Frequency 111650 KHZ
Airport Weather Information & NOTAM
ADDS - METARS form results

(2036 UTC 10 August 2022)
Data provider http://aviationweather.gov/metar/data/
 
METAR text: LFOK 102030Z AUTO 07008KT CAVOK 23/09 Q1020 NOSIG
Conditions at: LFOK (CHALONS/VATRY FA, FR) observed 2030 UTC 10 August 2022
Temperature: 23.0°C (73°F)
Dewpoint: 9.0°C (48°F) [RH = 41%]
Pressure (altimeter): 30.12 inches Hg (1020.0 mb)
Winds: from the ENE (70 degrees) at 9 MPH (8 knots; 4.1 m/s)
Visibility: 6 or more miles (10+ km)
Ceiling: ceiling and visibility are OK
Clouds: unknown
Weather: no significant weather observed at this time

METAR text: LFOK 102000Z AUTO 06007KT CAVOK 23/09 Q1020 NOSIG
Conditions at: LFOK (CHALONS/VATRY FA, FR) observed 2000 UTC 10 August 2022
Temperature: 23.0°C (73°F)
Dewpoint: 9.0°C (48°F) [RH = 41%]
Pressure (altimeter): 30.12 inches Hg (1020.0 mb)
Winds: from the ENE (60 degrees) at 8 MPH (7 knots; 3.6 m/s)
Visibility: 6 or more miles (10+ km)
Ceiling: ceiling and visibility are OK
Clouds: unknown
Weather: no significant weather observed at this time

Forecast for: LFOK (CHALONS/VATRY FA, FR)
Text: TAF LFOK 101700Z 1018/1118 06013KT CAVOK
Forecast period: 1800 to 2200 UTC 10 August 2022
Forecast type: FROM: standard forecast or significant change
Winds: from the ENE (60 degrees) at 15 MPH (13 knots; 6.7 m/s)
Visibility: 6 or more miles (10+ km)
Ceiling: unknown
Clouds: missing
Weather: NSW  (no significant weather)
Text: BECMG 1022/1101 01005KT
Forecast period: 2200 UTC 10 August 2022 to 0600 UTC 11 August 2022
Forecast type: BECOMING: Conditions expected to become as follows by 0100 UTC 11 August 2022
Winds: from the N (10 degrees) at 6 MPH (5 knots; 2.6 m/s)
Visibility: 6 or more miles (10+ km)
Ceiling: unknown
Clouds: missing
Weather: NSW  (no significant weather)
Text: BECMG 1106/1109 08013KT
Forecast period: 0600 to 1800 UTC 11 August 2022
Forecast type: BECOMING: Conditions expected to become as follows by 0900 UTC 11 August 2022
Winds: from the E (80 degrees) at 15 MPH (13 knots; 6.7 m/s)
Visibility: 6 or more miles (10+ km)
Ceiling: unknown
Clouds: missing
Weather: NSW  (no significant weather)